sensor_id;sensor_type;location;lat;lon;timestamp;pressure;altitude;pressure_sealevel;temperature;humidity
33280;BME280;20403;43.114;12.434;2023-04-01T00:01:51;98256.72;;;14.00;100.00
33280;BME280;20403;43.114;12.434;2023-04-01T00:04:17;98249.09;;;14.04;100.00
33280;BME280;20403;43.114;12.434;2023-04-01T00:06:42;98252.25;;;14.01;100.00
33280;BME280;20403;43.114;12.434;2023-04-01T00:09:08;98249.38;;;14.07;100.00
33280;BME280;20403;43.114;12.434;2023-04-01T00:11:33;98246.97;;;14.11;100.00
33280;BME280;20403;43.114;12.434;2023-04-01T00:13:59;98246.97;;;14.16;100.00
33280;BME280;20403;43.114;12.434;2023-04-01T00:16:24;98242.00;;;14.15;100.00
33280;BME280;20403;43.114;12.434;2023-04-01T00:18:51;98244.88;;;14.13;100.00
33280;BME280;20403;43.114;12.434;2023-04-01T00:21:17;98242.25;;;14.13;100.00
33280;BME280;20403;43.114;12.434;2023-04-01T00:23:42;98248.03;;;14.15;100.00
33280;BME280;20403;43.114;12.434;2023-04-01T00:26:09;98246.22;;;14.05;100.00
33280;BME280;20403;43.114;12.434;2023-04-01T00:28:34;98242.03;;;14.10;100.00
33280;BME280;20403;43.114;12.434;2023-04-01T00:31:05;98243.06;;;14.03;100.00
33280;BME280;20403;43.114;12.434;2023-04-01T00:33:31;98231.00;;;14.02;100.00
33280;BME280;20403;43.114;12.434;2023-04-01T00:36:08;98233.13;;;14.05;100.00
33280;BME280;20403;43.114;12.434;2023-04-01T00:38:35;98245.16;;;14.06;100.00
33280;BME280;20403;43.114;12.434;2023-04-01T00:41:00;98246.97;;;14.11;100.00
33280;BME280;20403;43.114;12.434;2023-04-01T00:43:25;98245.69;;;14.08;100.00
33280;BME280;20403;43.114;12.434;2023-04-01T00:45:51;98245.16;;;14.17;100.00
33280;BME280;20403;43.114;12.434;2023-04-01T00:48:20;98243.03;;;14.14;100.00
33280;BME280;20403;43.114;12.434;2023-04-01T00:51:01;98243.84;;;14.04;100.00
33280;BME280;20403;43.114;12.434;2023-04-01T00:53:28;98243.56;;;14.16;100.00
33280;BME280;20403;43.114;12.434;2023-04-01T00:56:14;98238.09;;;14.12;100.00
33280;BME280;20403;43.114;12.434;2023-04-01T00:58:47;98240.19;;;14.00;100.00
33280;BME280;20403;43.114;12.434;2023-04-01T01:01:14;98233.63;;;14.07;100.00
33280;BME280;20403;43.114;12.434;2023-04-01T01:03:39;98225.25;;;14.05;100.00
33280;BME280;20403;43.114;12.434;2023-04-01T01:17:32;98220.28;;;13.94;100.00
33280;BME280;20403;43.114;12.434;2023-04-01T01:27:39;98217.66;;;13.94;100.00
33280;BME280;20403;43.114;12.434;2023-04-01T01:33:11;98207.69;;;13.91;100.00
33280;BME280;20403;43.114;12.434;2023-04-01T01:35:44;98200.63;;;13.96;100.00
33280;BME280;20403;43.114;12.434;2023-04-01T01:38:14;98199.03;;;13.95;100.00
33280;BME280;20403;43.114;12.434;2023-04-01T01:40:43;98198.28;;;13.90;100.00
33280;BME280;20403;43.114;12.434;2023-04-01T01:43:14;98187.78;;;13.95;100.00
33280;BME280;20403;43.114;12.434;2023-04-01T01:45:44;98185.97;;;13.85;100.00
33280;BME280;20403;43.114;12.434;2023-04-01T01:48:10;98198.03;;;13.81;100.00
33280;BME280;20403;43.114;12.434;2023-04-01T01:50:37;98202.25;;;13.82;100.00
33280;BME280;20403;43.114;12.434;2023-04-01T01:53:06;98204.56;;;13.83;100.00
33280;BME280;20403;43.114;12.434;2023-04-01T01:55:36;98205.91;;;13.76;100.00
33280;BME280;20403;43.114;12.434;2023-04-01T01:58:23;98203.28;;;13.65;100.00
33280;BME280;20403;43.114;12.434;2023-04-01T02:00:56;98201.47;;;13.61;100.00
33280;BME280;20403;43.114;12.434;2023-04-01T02:03:25;98199.63;;;13.51;100.00
33280;BME280;20403;43.114;12.434;2023-04-01T02:05:53;98192.50;;;13.26;100.00
33280;BME280;20403;43.114;12.434;2023-04-01T02:08:25;98193.56;;;13.20;100.00
33280;BME280;20403;43.114;12.434;2023-04-01T02:11:01;98192.00;;;13.09;100.00
33280;BME280;20403;43.114;12.434;2023-04-01T02:13:32;98184.09;;;12.93;100.00
33280;BME280;20403;43.114;12.434;2023-04-01T02:16:00;98185.41;;;12.80;100.00
33280;BME280;20403;43.114;12.434;2023-04-01T02:18:28;98195.56;;;12.72;100.00
33280;BME280;20403;43.114;12.434;2023-04-01T02:20:57;98190.03;;;12.48;100.00
33280;BME280;20403;43.114;12.434;2023-04-01T02:23:25;98192.91;;;12.56;100.00
33280;BME280;20403;43.114;12.434;2023-04-01T02:25:52;98187.66;;;12.51;100.00
33280;BME280;20403;43.114;12.434;2023-04-01T02:28:18;98183.22;;;12.52;100.00
33280;BME280;20403;43.114;12.434;2023-04-01T02:30:46;98179.50;;;12.37;100.00
33280;BME280;20403;43.114;12.434;2023-04-01T02:33:13;98173.50;;;12.37;100.00
33280;BME280;20403;43.114;12.434;2023-04-01T02:35:38;98175.34;;;12.42;100.00
33280;BME280;20403;43.114;12.434;2023-04-01T02:38:04;98182.44;;;12.56;100.00
33280;BME280;20403;43.114;12.434;2023-04-01T02:40:43;98175.91;;;12.54;100.00
33280;BME280;20403;43.114;12.434;2023-04-01T02:43:08;98167.22;;;12.38;100.00
33280;BME280;20403;43.114;12.434;2023-04-01T02:45:34;98162.97;;;12.22;100.00
33280;BME280;20403;43.114;12.434;2023-04-01T02:47:59;98172.09;;;12.19;100.00
33280;BME280;20403;43.114;12.434;2023-04-01T02:50:25;98175.19;;;12.06;100.00
33280;BME280;20403;43.114;12.434;2023-04-01T02:52:50;98181.91;;;11.91;100.00
33280;BME280;20403;43.114;12.434;2023-04-01T02:55:15;98179.53;;;11.90;100.00
33280;BME280;20403;43.114;12.434;2023-04-01T02:57:41;98186.53;;;11.84;100.00
33280;BME280;20403;43.114;12.434;2023-04-01T03:00:07;98186.53;;;11.84;100.00
33280;BME280;20403;43.114;12.434;2023-04-01T03:02:37;98186.03;;;11.87;100.00
33280;BME280;20403;43.114;12.434;2023-04-01T03:05:04;98197.72;;;11.80;100.00
33280;BME280;20403;43.114;12.434;2023-04-01T03:07:29;98198.88;;;11.89;100.00
33280;BME280;20403;43.114;12.434;2023-04-01T03:09:54;98202.13;;;12.06;100.00
33280;BME280;20403;43.114;12.434;2023-04-01T03:12:20;98204.78;;;12.16;100.00
33280;BME280;20403;43.114;12.434;2023-04-01T03:14:45;98207.41;;;12.22;100.00
33280;BME280;20403;43.114;12.434;2023-04-01T03:17:11;98209.81;;;12.33;100.00
33280;BME280;20403;43.114;12.434;2023-04-01T03:19:36;98214.56;;;12.42;100.00
33280;BME280;20403;43.114;12.434;2023-04-01T03:22:01;98223.63;;;12.24;100.00
33280;BME280;20403;43.114;12.434;2023-04-01T03:24:27;98226.97;;;12.14;100.00
33280;BME280;20403;43.114;12.434;2023-04-01T03:26:52;98224.34;;;12.09;100.00
33280;BME280;20403;43.114;12.434;2023-04-01T03:29:18;98229.88;;;11.85;100.00
33280;BME280;20403;43.114;12.434;2023-04-01T03:31:43;98224.03;;;11.68;100.00
33280;BME280;20403;43.114;12.434;2023-04-01T03:34:09;98223.03;;;11.74;100.00
33280;BME280;20403;43.114;12.434;2023-04-01T03:36:34;98220.84;;;11.61;100.00
33280;BME280;20403;43.114;12.434;2023-04-01T03:39:00;98216.34;;;11.51;100.00
33280;BME280;20403;43.114;12.434;2023-04-01T03:41:25;98215.34;;;11.62;100.00
33280;BME280;20403;43.114;12.434;2023-04-01T03:43:53;98217.63;;;11.48;100.00
33280;BME280;20403;43.114;12.434;2023-04-01T03:46:19;98218.44;;;11.54;100.00
33280;BME280;20403;43.114;12.434;2023-04-01T03:48:45;98218.72;;;11.57;100.00
33280;BME280;20403;43.114;12.434;2023-04-01T03:51:10;98213.78;;;11.61;100.00
33280;BME280;20403;43.114;12.434;2023-04-01T03:53:36;98214.34;;;11.63;100.00
33280;BME280;20403;43.114;12.434;2023-04-01T03:56:05;98212.75;;;11.62;100.00
33280;BME280;20403;43.114;12.434;2023-04-01T03:58:31;98205.78;;;11.73;100.00
33280;BME280;20403;43.114;12.434;2023-04-01T04:00:57;98214.66;;;11.72;100.00
33280;BME280;20403;43.114;12.434;2023-04-01T04:03:22;98210.72;;;11.69;100.00
33280;BME280;20403;43.114;12.434;2023-04-01T04:05:49;98203.09;;;11.63;100.00
33280;BME280;20403;43.114;12.434;2023-04-01T04:08:15;98206.69;;;11.51;100.00
33280;BME280;20403;43.114;12.434;2023-04-01T04:10:41;98196.97;;;11.47;100.00
33280;BME280;20403;43.114;12.434;2023-04-01T04:13:07;98195.53;;;11.29;100.00
33280;BME280;20403;43.114;12.434;2023-04-01T04:15:32;98192.63;;;11.25;100.00
33280;BME280;20403;43.114;12.434;2023-04-01T04:17:58;98198.28;;;11.17;100.00
33280;BME280;20403;43.114;12.434;2023-04-01T04:20:23;98194.41;;;11.20;100.00
33280;BME280;20403;43.114;12.434;2023-04-01T04:22:48;98197.72;;;11.10;100.00
33280;BME280;20403;43.114;12.434;2023-04-01T04:25:14;98201.75;;;10.96;100.00
33280;BME280;20403;43.114;12.434;2023-04-01T04:27:39;98187.22;;;10.78;100.00
33280;BME280;20403;43.114;12.434;2023-04-01T04:30:06;98194.19;;;10.72;100.00
33280;BME280;20403;43.114;12.434;2023-04-01T04:32:32;98187.81;;;10.63;100.00
33280;BME280;20403;43.114;12.434;2023-04-01T04:34:57;98183.72;;;10.67;100.00
33280;BME280;20403;43.114;12.434;2023-04-01T04:37:23;98188.56;;;10.58;100.00
33280;BME280;20403;43.114;12.434;2023-04-01T04:39:48;98194.63;;;10.64;100.00
33280;BME280;20403;43.114;12.434;2023-04-01T04:42:14;98203.91;;;10.55;100.00
33280;BME280;20403;43.114;12.434;2023-04-01T04:44:39;98206.28;;;10.56;100.00
33280;BME280;20403;43.114;12.434;2023-04-01T04:47:05;98205.25;;;10.57;100.00
33280;BME280;20403;43.114;12.434;2023-04-01T04:49:30;98209.63;;;10.51;100.00
33280;BME280;20403;43.114;12.434;2023-04-01T04:51:56;98205.59;;;10.44;100.00
33280;BME280;20403;43.114;12.434;2023-04-01T04:54:21;98201.72;;;10.46;100.00
33280;BME280;20403;43.114;12.434;2023-04-01T04:56:47;98206.69;;;10.26;100.00
33280;BME280;20403;43.114;12.434;2023-04-01T04:59:12;98208.72;;;10.24;100.00
33280;BME280;20403;43.114;12.434;2023-04-01T05:01:38;98208.19;;;10.22;100.00
33280;BME280;20403;43.114;12.434;2023-04-01T05:04:03;98213.56;;;10.15;100.00
33280;BME280;20403;43.114;12.434;2023-04-01T05:06:29;98212.47;;;10.11;100.00
33280;BME280;20403;43.114;12.434;2023-04-01T05:08:56;98208.84;;;10.12;100.00
33280;BME280;20403;43.114;12.434;2023-04-01T05:11:22;98221.22;;;10.05;100.00
33280;BME280;20403;43.114;12.434;2023-04-01T05:13:48;98220.28;;;10.11;100.00
33280;BME280;20403;43.114;12.434;2023-04-01T05:16:16;98212.84;;;10.20;100.00
33280;BME280;20403;43.114;12.434;2023-04-01T05:18:42;98210.88;;;10.10;100.00
33280;BME280;20403;43.114;12.434;2023-04-01T05:21:09;98219.88;;;10.19;100.00
33280;BME280;20403;43.114;12.434;2023-04-01T05:23:36;98221.91;;;10.34;100.00
33280;BME280;20403;43.114;12.434;2023-04-01T05:26:10;98231.06;;;10.20;100.00
33280;BME280;20403;43.114;12.434;2023-04-01T05:28:36;98233.19;;;10.23;100.00
33280;BME280;20403;43.114;12.434;2023-04-01T05:31:02;98233.44;;;10.38;100.00
33280;BME280;20403;43.114;12.434;2023-04-01T05:33:29;98234.09;;;10.28;100.00
33280;BME280;20403;43.114;12.434;2023-04-01T05:35:55;98240.53;;;10.43;100.00
33280;BME280;20403;43.114;12.434;2023-04-01T05:38:21;98241.41;;;10.32;100.00
33280;BME280;20403;43.114;12.434;2023-04-01T05:40:46;98244.88;;;10.37;100.00
33280;BME280;20403;43.114;12.434;2023-04-01T05:43:12;98248.34;;;10.43;100.00
33280;BME280;20403;43.114;12.434;2023-04-01T05:45:38;98244.78;;;10.49;100.00
33280;BME280;20403;43.114;12.434;2023-04-01T05:48:03;98254.72;;;10.52;100.00
33280;BME280;20403;43.114;12.434;2023-04-01T05:50:29;98258.31;;;10.68;100.00
33280;BME280;20403;43.114;12.434;2023-04-01T05:52:55;98266.53;;;10.82;100.00
33280;BME280;20403;43.114;12.434;2023-04-01T05:55:20;98278.31;;;10.84;100.00
33280;BME280;20403;43.114;12.434;2023-04-01T05:57:46;98282.25;;;10.87;100.00
33280;BME280;20403;43.114;12.434;2023-04-01T06:00:13;98285.09;;;11.07;100.00
33280;BME280;20403;43.114;12.434;2023-04-01T06:02:39;98283.25;;;11.30;100.00
33280;BME280;20403;43.114;12.434;2023-04-01T06:05:24;98284.97;;;11.46;100.00
33280;BME280;20403;43.114;12.434;2023-04-01T06:07:58;98292.91;;;11.62;100.00
33280;BME280;20403;43.114;12.434;2023-04-01T06:13:21;98286.28;;;11.81;100.00
33280;BME280;20403;43.114;12.434;2023-04-01T06:26:46;98314.09;;;12.30;100.00
33280;BME280;20403;43.114;12.434;2023-04-01T06:32:22;98326.25;;;12.51;100.00
33280;BME280;20403;43.114;12.434;2023-04-01T06:35:02;98322.41;;;12.64;100.00
33280;BME280;20403;43.114;12.434;2023-04-01T06:37:41;98326.59;;;12.65;100.00
33280;BME280;20403;43.114;12.434;2023-04-01T06:43:11;98322.31;;;13.01;100.00
33280;BME280;20403;43.114;12.434;2023-04-01T06:46:02;98326.03;;;13.21;100.00
33280;BME280;20403;43.114;12.434;2023-04-01T06:51:37;98323.50;;;13.41;100.00
33280;BME280;20403;43.114;12.434;2023-04-01T06:54:49;98330.56;;;13.46;100.00
33280;BME280;20403;43.114;12.434;2023-04-01T06:57:41;98324.31;;;13.62;100.00
33280;BME280;20403;43.114;12.434;2023-04-01T07:03:02;98334.84;;;13.98;100.00
33280;BME280;20403;43.114;12.434;2023-04-01T07:05:32;98341.88;;;14.18;100.00
33280;BME280;20403;43.114;12.434;2023-04-01T07:08:02;98341.91;;;14.23;100.00
33280;BME280;20403;43.114;12.434;2023-04-01T07:10:39;98342.91;;;14.27;100.00
33280;BME280;20403;43.114;12.434;2023-04-01T07:13:14;98361.03;;;14.24;100.00
33280;BME280;20403;43.114;12.434;2023-04-01T07:15:54;98347.91;;;13.88;100.00
33280;BME280;20403;43.114;12.434;2023-04-01T07:18:29;98352.91;;;13.90;100.00
33280;BME280;20403;43.114;12.434;2023-04-01T07:20:56;98356.06;;;13.97;100.00
33280;BME280;20403;43.114;12.434;2023-04-01T07:23:32;98360.50;;;14.06;100.00
33280;BME280;20403;43.114;12.434;2023-04-01T07:26:21;98367.34;;;14.07;100.00
33280;BME280;20403;43.114;12.434;2023-04-01T07:28:48;98368.38;;;14.06;100.00
33280;BME280;20403;43.114;12.434;2023-04-01T07:31:30;98373.09;;;14.20;100.00
33280;BME280;20403;43.114;12.434;2023-04-01T07:34:11;98377.03;;;14.33;100.00
33280;BME280;20403;43.114;12.434;2023-04-01T07:42:06;98378.84;;;14.58;100.00
33280;BME280;20403;43.114;12.434;2023-04-01T07:44:58;98377.22;;;14.87;100.00
33280;BME280;20403;43.114;12.434;2023-04-01T07:47:41;98371.50;;;15.85;100.00
33280;BME280;20403;43.114;12.434;2023-04-01T07:53:42;98372.88;;;16.46;100.00
33280;BME280;20403;43.114;12.434;2023-04-01T07:56:13;98373.31;;;16.77;100.00
33280;BME280;20403;43.114;12.434;2023-04-01T08:04:51;98379.50;;;17.58;100.00
33280;BME280;20403;43.114;12.434;2023-04-01T08:13:21;98376.84;;;16.43;100.00
33280;BME280;20403;43.114;12.434;2023-04-01T08:15:58;98370.69;;;16.24;100.00
33280;BME280;20403;43.114;12.434;2023-04-01T08:18:38;98369.72;;;16.14;100.00
33280;BME280;20403;43.114;12.434;2023-04-01T08:21:20;98374.53;;;16.02;100.00
33280;BME280;20403;43.114;12.434;2023-04-01T08:23:47;98367.22;;;16.28;100.00
33280;BME280;20403;43.114;12.434;2023-04-01T08:26:42;98365.56;;;16.67;100.00
33280;BME280;20403;43.114;12.434;2023-04-01T08:29:20;98359.97;;;16.73;100.00
33280;BME280;20403;43.114;12.434;2023-04-01T08:32:27;98358.81;;;17.47;100.00
33280;BME280;20403;43.114;12.434;2023-04-01T08:35:08;98354.34;;;17.85;100.00
33280;BME280;20403;43.114;12.434;2023-04-01T08:37:37;98362.88;;;17.39;100.00
33280;BME280;20403;43.114;12.434;2023-04-01T08:43:20;98363.75;;;16.04;100.00
33280;BME280;20403;43.114;12.434;2023-04-01T08:48:52;98370.44;;;16.78;100.00
33280;BME280;20403;43.114;12.434;2023-04-01T08:57:08;98376.78;;;17.01;100.00
33280;BME280;20403;43.114;12.434;2023-04-01T08:59:57;98385.53;;;16.97;100.00
33280;BME280;20403;43.114;12.434;2023-04-01T09:11:17;98385.88;;;18.09;100.00
33280;BME280;20403;43.114;12.434;2023-04-01T09:16:30;98388.47;;;17.76;94.20
33280;BME280;20403;43.114;12.434;2023-04-01T09:39:37;98392.03;;;18.37;92.59
33280;BME280;20403;43.114;12.434;2023-04-01T09:42:15;98397.25;;;17.91;92.74
33280;BME280;20403;43.114;12.434;2023-04-01T09:45:00;98385.94;;;18.37;86.69
33280;BME280;20403;43.114;12.434;2023-04-01T09:47:55;98392.75;;;18.57;75.81
33280;BME280;20403;43.114;12.434;2023-04-01T10:06:52;98371.38;;;19.50;65.84
33280;BME280;20403;43.114;12.434;2023-04-01T10:20:44;98348.63;;;21.10;54.77
33280;BME280;20403;43.114;12.434;2023-04-01T10:23:20;98355.25;;;20.19;55.87
33280;BME280;20403;43.114;12.434;2023-04-01T10:33:58;98340.44;;;20.81;52.64
33280;BME280;20403;43.114;12.434;2023-04-01T10:36:47;98325.75;;;21.40;48.79
33280;BME280;20403;43.114;12.434;2023-04-01T10:42:24;98317.94;;;21.27;48.03
33280;BME280;20403;43.114;12.434;2023-04-01T10:51:25;98318.25;;;21.86;48.34
33280;BME280;20403;43.114;12.434;2023-04-01T10:54:08;98324.63;;;21.94;46.99
33280;BME280;20403;43.114;12.434;2023-04-01T10:56:59;98316.31;;;22.13;46.50
33280;BME280;20403;43.114;12.434;2023-04-01T11:13:30;98313.25;;;21.24;44.67
33280;BME280;20403;43.114;12.434;2023-04-01T11:46:11;98275.34;;;22.31;44.83
33280;BME280;20403;43.114;12.434;2023-04-01T11:48:41;98291.66;;;22.03;42.56
33280;BME280;20403;43.114;12.434;2023-04-01T11:51:46;98273.78;;;22.30;42.78
33280;BME280;20403;43.114;12.434;2023-04-01T11:57:07;98274.03;;;22.46;41.24
33280;BME280;20403;43.114;12.434;2023-04-01T12:02:43;98264.03;;;23.57;41.10
33280;BME280;20403;43.114;12.434;2023-04-01T12:05:30;98253.06;;;23.58;39.88
33280;BME280;20403;43.114;12.434;2023-04-01T12:10:45;98246.50;;;23.56;37.67
33280;BME280;20403;43.114;12.434;2023-04-01T12:16:05;98249.44;;;23.09;40.31
33280;BME280;20403;43.114;12.434;2023-04-01T12:18:46;98245.50;;;23.48;40.31
33280;BME280;20403;43.114;12.434;2023-04-01T12:24:05;98242.78;;;22.94;39.86
33280;BME280;20403;43.114;12.434;2023-04-01T12:42:38;98207.28;;;22.69;41.65
33280;BME280;20403;43.114;12.434;2023-04-01T12:45:28;98199.44;;;23.02;38.81
33280;BME280;20403;43.114;12.434;2023-04-01T13:12:35;98182.53;;;22.56;40.80
33280;BME280;20403;43.114;12.434;2023-04-01T13:28:24;98163.47;;;22.75;40.45
33280;BME280;20403;43.114;12.434;2023-04-01T13:31:06;98156.53;;;23.03;40.59
33280;BME280;20403;43.114;12.434;2023-04-01T13:33:39;98147.06;;;23.15;38.73
33280;BME280;20403;43.114;12.434;2023-04-01T13:36:19;98150.13;;;23.04;37.23
33280;BME280;20403;43.114;12.434;2023-04-01T13:39:15;98155.75;;;22.40;34.51
33280;BME280;20403;43.114;12.434;2023-04-01T13:41:51;98160.19;;;22.27;33.33
33280;BME280;20403;43.114;12.434;2023-04-01T13:44:31;98157.13;;;22.46;34.37
33280;BME280;20403;43.114;12.434;2023-04-01T14:06:02;98144.53;;;21.66;33.20
33280;BME280;20403;43.114;12.434;2023-04-01T14:11:30;98147.81;;;22.01;34.74
33280;BME280;20403;43.114;12.434;2023-04-01T14:25:44;98129.13;;;21.59;36.41
33280;BME280;20403;43.114;12.434;2023-04-01T14:28:30;98127.69;;;21.62;35.71
33280;BME280;20403;43.114;12.434;2023-04-01T14:48:27;98119.38;;;21.16;37.34
33280;BME280;20403;43.114;12.434;2023-04-01T14:51:02;98117.72;;;20.86;37.54
33280;BME280;20403;43.114;12.434;2023-04-01T14:53:31;98111.78;;;20.71;38.43
33280;BME280;20403;43.114;12.434;2023-04-01T14:56:00;98107.13;;;20.68;39.39
33280;BME280;20403;43.114;12.434;2023-04-01T14:58:49;98104.63;;;20.63;39.20
33280;BME280;20403;43.114;12.434;2023-04-01T15:06:47;98102.25;;;20.35;38.77
33280;BME280;20403;43.114;12.434;2023-04-01T15:09:39;98107.88;;;20.43;38.53
33280;BME280;20403;43.114;12.434;2023-04-01T15:12:13;98110.94;;;20.19;37.41
33280;BME280;20403;43.114;12.434;2023-04-01T15:14:54;98114.38;;;20.10;37.44
33280;BME280;20403;43.114;12.434;2023-04-01T15:29:29;98103.47;;;20.12;47.74
33280;BME280;20403;43.114;12.434;2023-04-01T15:34:53;98098.28;;;19.58;50.64
33280;BME280;20403;43.114;12.434;2023-04-01T15:43:22;98109.44;;;18.20;52.72
33280;BME280;20403;43.114;12.434;2023-04-01T15:49:03;98106.53;;;18.08;54.95
33280;BME280;20403;43.114;12.434;2023-04-01T15:59:41;98111.91;;;18.16;57.85
33280;BME280;20403;43.114;12.434;2023-04-01T16:02:26;98111.81;;;18.08;59.61
33280;BME280;20403;43.114;12.434;2023-04-01T16:05:09;98104.25;;;18.15;60.71
33280;BME280;20403;43.114;12.434;2023-04-01T16:10:23;98108.38;;;18.21;64.08
33280;BME280;20403;43.114;12.434;2023-04-01T16:16:00;98111.53;;;18.45;66.70
33280;BME280;20403;43.114;12.434;2023-04-01T16:21:53;98113.13;;;18.33;66.69
33280;BME280;20403;43.114;12.434;2023-04-01T16:24:24;98121.34;;;18.17;64.21
33280;BME280;20403;43.114;12.434;2023-04-01T16:28:19;98122.63;;;18.06;65.96
33280;BME280;20403;43.114;12.434;2023-04-01T16:30:46;98128.91;;;17.82;69.85
33280;BME280;20403;43.114;12.434;2023-04-01T16:33:58;98130.16;;;17.85;71.60
33280;BME280;20403;43.114;12.434;2023-04-01T16:36:29;98137.19;;;17.90;72.02
33280;BME280;20403;43.114;12.434;2023-04-01T16:41:52;98143.63;;;17.83;74.63
33280;BME280;20403;43.114;12.434;2023-04-01T16:44:26;98144.19;;;17.67;75.56
33280;BME280;20403;43.114;12.434;2023-04-01T16:49:27;98147.75;;;17.43;77.63
33280;BME280;20403;43.114;12.434;2023-04-01T16:54:55;98147.44;;;17.31;81.33
33280;BME280;20403;43.114;12.434;2023-04-01T17:02:38;98142.75;;;17.28;100.00
33280;BME280;20403;43.114;12.434;2023-04-01T17:05:12;98145.25;;;17.19;100.00
33280;BME280;20403;43.114;12.434;2023-04-01T17:13:06;98153.09;;;17.05;100.00
33280;BME280;20403;43.114;12.434;2023-04-01T17:24:00;98182.00;;;16.91;91.70
33280;BME280;20403;43.114;12.434;2023-04-01T17:34:46;98203.94;;;16.87;100.00
33280;BME280;20403;43.114;12.434;2023-04-01T17:37:33;98206.69;;;16.76;100.00
33280;BME280;20403;43.114;12.434;2023-04-01T17:43:18;98208.84;;;16.31;100.00
33280;BME280;20403;43.114;12.434;2023-04-01T17:45:56;98215.31;;;16.39;100.00
33280;BME280;20403;43.114;12.434;2023-04-01T17:48:45;98218.63;;;16.02;100.00
33280;BME280;20403;43.114;12.434;2023-04-01T18:11:00;98244.13;;;14.88;100.00
33280;BME280;20403;43.114;12.434;2023-04-01T18:13:41;98244.84;;;14.99;100.00
33280;BME280;20403;43.114;12.434;2023-04-01T18:16:37;98253.72;;;15.08;96.42
33280;BME280;20403;43.114;12.434;2023-04-01T18:24:54;98250.78;;;15.20;100.00
33280;BME280;20403;43.114;12.434;2023-04-01T18:27:42;98254.72;;;15.17;95.46
33280;BME280;20403;43.114;12.434;2023-04-01T18:30:28;98248.91;;;15.25;69.84
33280;BME280;20403;43.114;12.434;2023-04-01T18:33:00;98251.72;;;15.39;71.42
33280;BME280;20403;43.114;12.434;2023-04-01T18:38:40;98245.69;;;15.33;83.46
33280;BME280;20403;43.114;12.434;2023-04-01T18:41:12;98246.81;;;15.27;91.87
33280;BME280;20403;43.114;12.434;2023-04-01T18:44:03;98249.00;;;15.10;97.91
33280;BME280;20403;43.114;12.434;2023-04-01T18:46:59;98252.19;;;15.02;100.00
33280;BME280;20403;43.114;12.434;2023-04-01T18:49:39;98261.97;;;14.91;85.89
33280;BME280;20403;43.114;12.434;2023-04-01T18:52:16;98271.97;;;14.79;93.58
33280;BME280;20403;43.114;12.434;2023-04-01T18:57:19;98287.78;;;14.53;97.15
33280;BME280;20403;43.114;12.434;2023-04-01T19:00:03;98287.81;;;14.48;93.53
33280;BME280;20403;43.114;12.434;2023-04-01T19:02:38;98287.31;;;14.36;94.15
33280;BME280;20403;43.114;12.434;2023-04-01T19:05:12;98297.31;;;14.18;100.00
33280;BME280;20403;43.114;12.434;2023-04-01T19:07:49;98300.22;;;13.96;100.00
33280;BME280;20403;43.114;12.434;2023-04-01T19:15:46;98308.59;;;13.47;100.00
33280;BME280;20403;43.114;12.434;2023-04-01T19:26:27;98320.72;;;13.00;100.00
33280;BME280;20403;43.114;12.434;2023-04-01T19:34:11;98327.13;;;12.62;100.00
33280;BME280;20403;43.114;12.434;2023-04-01T19:39:41;98325.78;;;12.59;100.00
33280;BME280;20403;43.114;12.434;2023-04-01T19:48:09;98330.56;;;12.30;100.00
33280;BME280;20403;43.114;12.434;2023-04-01T19:51:10;98335.31;;;12.01;100.00
33280;BME280;20403;43.114;12.434;2023-04-01T19:56:24;98327.81;;;12.10;100.00
33280;BME280;20403;43.114;12.434;2023-04-01T20:04:43;98314.59;;;11.89;100.00
33280;BME280;20403;43.114;12.434;2023-04-01T20:09:48;98318.19;;;11.83;100.00
33280;BME280;20403;43.114;12.434;2023-04-01T20:14:58;98324.78;;;11.91;100.00
33280;BME280;20403;43.114;12.434;2023-04-01T20:25:23;98324.59;;;11.70;100.00
33280;BME280;20403;43.114;12.434;2023-04-01T20:30:40;98332.22;;;11.50;100.00
33280;BME280;20403;43.114;12.434;2023-04-01T20:42:12;98324.53;;;11.38;100.00
33280;BME280;20403;43.114;12.434;2023-04-01T20:47:51;98328.84;;;11.27;100.00
33280;BME280;20403;43.114;12.434;2023-04-01T20:50:31;98326.75;;;11.24;100.00
33280;BME280;20403;43.114;12.434;2023-04-01T20:58:21;98335.06;;;10.99;100.00
33280;BME280;20403;43.114;12.434;2023-04-01T21:12:02;98340.47;;;10.70;100.00
33280;BME280;20403;43.114;12.434;2023-04-01T21:40:00;98361.41;;;10.08;100.00
33280;BME280;20403;43.114;12.434;2023-04-01T21:48:00;98380.44;;;9.92;100.00
33280;BME280;20403;43.114;12.434;2023-04-01T22:07:23;98378.59;;;9.63;100.00
33280;BME280;20403;43.114;12.434;2023-04-01T22:10:05;98377.78;;;9.75;100.00
33280;BME280;20403;43.114;12.434;2023-04-01T22:12:42;98368.16;;;9.75;100.00
33280;BME280;20403;43.114;12.434;2023-04-01T22:15:18;98367.22;;;9.81;100.00
33280;BME280;20403;43.114;12.434;2023-04-01T22:17:52;98365.59;;;9.92;100.00
33280;BME280;20403;43.114;12.434;2023-04-01T22:23:14;98359.59;;;10.08;100.00
33280;BME280;20403;43.114;12.434;2023-04-01T22:25:59;98366.91;;;9.95;100.00
33280;BME280;20403;43.114;12.434;2023-04-01T22:28:31;98361.94;;;9.76;100.00
33280;BME280;20403;43.114;12.434;2023-04-01T22:31:00;98361.19;;;9.64;100.00
33280;BME280;20403;43.114;12.434;2023-04-01T22:47:43;98346.81;;;9.33;100.00
33280;BME280;20403;43.114;12.434;2023-04-01T22:50:23;98349.81;;;9.24;100.00
33280;BME280;20403;43.114;12.434;2023-04-01T22:55:49;98345.16;;;9.27;100.00
33280;BME280;20403;43.114;12.434;2023-04-01T22:58:21;98343.34;;;9.27;100.00